Time;durP1;ratioP1;P1;durP2;ratioP2;P2;SDS_P1;SDS_P2;PMS_P1;PMS_P2;Temp;Humidity;BMP_temperature;BMP_pressure;BME280_temperature;BME280_humidity;BME280_pressure;Samples;Min_cycle;Max_cycle;Signal;HPM_P1;HPM_P2
2022/08/22 00:06:30;;;;;;;11.52;2.15;;;18.60;99.90;;;;;;12479044;28;20097;-81
2022/08/22 00:12:44;;;;;;;7.63;2.40;;;18.60;99.90;;;;;;12504933;28;20054;-81
2022/08/22 00:19:07;;;;;;;8.75;2.75;;;18.50;99.90;;;;;;12487036;28;20060;-81
2022/08/22 00:25:46;;;;;;;8.40;2.37;;;18.60;99.90;;;;;;12483423;28;20552;-81
2022/08/22 00:32:04;;;;;;;10.52;2.25;;;18.60;99.90;;;;;;12471706;28;20072;-81
2022/08/22 00:38:17;;;;;;;6.82;2.10;;;18.60;99.90;;;;;;12485502;28;20056;-81
2022/08/22 00:44:30;;;;;;;10.00;2.30;;;18.80;99.90;;;;;;12469048;28;20041;-81
2022/08/22 00:50:57;;;;;;;8.35;2.00;;;18.80;99.90;;;;;;12481036;28;20049;-81
2022/08/22 00:57:30;;;;;;;10.57;1.90;;;18.70;99.90;;;;;;12506535;28;20413;-81
2022/08/22 01:03:31;;;;;;;8.60;1.90;;;18.50;99.90;;;;;;12478684;28;20528;-80
2022/08/22 01:10:17;;;;;;;7.68;2.00;;;18.50;99.90;;;;;;12481184;28;20478;-81
2022/08/22 01:16:54;;;;;;;7.20;2.20;;;18.50;99.90;;;;;;12462099;28;20096;-82
2022/08/22 01:23:29;;;;;;;7.15;2.30;;;18.60;99.90;;;;;;12496943;28;20050;-81
2022/08/22 01:29:42;;;;;;;9.20;2.30;;;18.60;99.90;;;;;;12476944;28;20065;-81
2022/08/22 01:36:22;;;;;;;8.85;2.25;;;18.50;99.90;;;;;;12486874;28;20042;-81
2022/08/22 01:42:53;;;;;;;7.43;2.17;;;18.40;99.90;;;;;;12486685;28;20409;-81
2022/08/22 01:49:20;;;;;;;6.95;2.10;;;18.40;99.90;;;;;;12506759;28;20103;-82
2022/08/22 01:56:04;;;;;;;8.10;2.53;;;18.20;99.90;;;;;;12477509;28;20042;-81
2022/08/22 02:02:21;;;;;;;6.25;2.10;;;18.20;99.90;;;;;;12495099;28;20049;-81
2022/08/22 02:08:53;;;;;;;9.98;2.40;;;18.20;99.90;;;;;;12512133;28;20069;-82
2022/08/22 02:15:03;;;;;;;9.32;2.60;;;18.20;99.90;;;;;;12479168;28;20160;-81
2022/08/22 02:21:19;;;;;;;7.30;2.50;;;18.20;99.90;;;;;;12495054;28;20045;-81
2022/08/22 02:27:34;;;;;;;8.20;2.50;;;18.10;99.90;;;;;;12504681;28;20101;-82
2022/08/22 02:33:37;;;;;;;8.07;2.63;;;17.90;99.90;;;;;;12498770;28;20041;-81
2022/08/22 02:39:50;;;;;;;10.93;2.70;;;17.90;99.90;;;;;;12491821;28;20052;-81
2022/08/22 02:46:17;;;;;;;7.88;2.58;;;17.90;99.90;;;;;;12495869;28;20037;-81
2022/08/22 02:52:56;;;;;;;8.32;2.83;;;17.80;99.90;;;;;;12500923;28;20160;-82
2022/08/22 02:59:35;;;;;;;8.68;2.17;;;17.80;99.90;;;;;;12504848;28;20061;-81
2022/08/22 03:05:43;;;;;;;7.63;2.55;;;17.80;99.90;;;;;;12479093;28;20117;-81
2022/08/22 03:11:52;;;;;;;9.65;2.90;;;17.70;99.90;;;;;;12486897;28;20508;-81
2022/08/22 03:18:02;;;;;;;9.60;3.20;;;17.60;99.90;;;;;;12511491;28;20064;-81
2022/08/22 03:24:13;;;;;;;8.40;3.20;;;17.50;99.90;;;;;;12488251;28;20046;-81
2022/08/22 03:30:32;;;;;;;7.78;2.92;;;17.40;99.90;;;;;;12497762;28;20530;-81
2022/08/22 03:36:34;;;;;;;9.63;3.30;;;17.40;99.90;;;;;;12501070;28;20053;-81
2022/08/22 03:43:07;;;;;;;6.50;2.90;;;17.40;99.90;;;;;;12505009;28;20042;-81
2022/08/22 03:49:31;;;;;;;7.55;3.10;;;17.40;99.90;;;;;;12495382;28;20056;-81
2022/08/22 03:56:14;;;;;;;11.88;4.07;;;17.30;99.90;;;;;;12485162;28;20048;-81
2022/08/22 04:02:57;;;;;;;7.32;3.42;;;17.30;99.90;;;;;;12524081;28;20056;-81
2022/08/22 04:09:33;;;;;;;9.10;2.85;;;17.20;99.90;;;;;;12496439;28;20049;-81
2022/08/22 04:16:02;;;;;;;8.85;3.60;;;17.20;99.90;;;;;;12498956;28;20453;-81
2022/08/22 04:22:22;;;;;;;13.63;4.00;;;17.00;99.90;;;;;;12512323;28;20053;-81
2022/08/22 04:28:27;;;;;;;13.23;3.85;;;16.90;99.90;;;;;;12496529;28;20113;-81
2022/08/22 04:34:36;;;;;;;8.15;3.60;;;16.80;99.90;;;;;;12484146;28;20042;-81
2022/08/22 04:40:48;;;;;;;8.75;4.20;;;16.80;99.90;;;;;;12488158;28;20049;-82
2022/08/22 04:47:05;;;;;;;10.68;3.90;;;16.90;99.90;;;;;;12502972;28;20057;-82
2022/08/22 04:53:40;;;;;;;14.55;3.95;;;16.80;99.90;;;;;;12486541;28;20046;-82
2022/08/22 04:59:42;;;;;;;9.77;3.97;;;16.90;99.90;;;;;;12496615;28;20049;-81
2022/08/22 05:05:48;;;;;;;9.77;4.50;;;16.70;99.90;;;;;;12488817;28;20064;-81
2022/08/22 05:11:56;;;;;;;8.40;4.15;;;16.70;99.90;;;;;;12513326;28;20056;-81
2022/08/22 05:18:12;;;;;;;11.35;4.85;;;16.60;99.90;;;;;;12484444;28;20068;-81
2022/08/22 05:24:26;;;;;;;9.93;4.22;;;16.70;99.90;;;;;;12483915;28;20037;-81
2022/08/22 05:30:32;;;;;;;11.88;4.03;;;16.70;99.90;;;;;;12494224;28;20073;-82
2022/08/22 05:36:40;;;;;;;11.88;4.45;;;16.80;99.90;;;;;;12483338;28;20049;-82
2022/08/22 05:42:44;;;;;;;11.65;4.70;;;16.90;99.90;;;;;;12492624;28;20041;-81
2022/08/22 05:48:59;;;;;;;17.30;4.68;;;16.90;99.90;;;;;;12473298;28;20440;-81
2022/08/22 05:55:25;;;;;;;8.57;4.47;;;16.90;99.90;;;;;;12469497;28;20057;-81
2022/08/22 06:02:04;;;;;;;12.43;4.90;;;17.00;99.90;;;;;;12485219;28;20081;-82
2022/08/22 06:08:18;;;;;;;17.55;5.43;;;17.00;99.90;;;;;;12493701;28;20441;-82
2022/08/22 06:14:56;;;;;;;13.97;4.87;;;17.00;99.90;;;;;;12479474;28;20526;-82
2022/08/22 06:21:07;;;;;;;11.13;4.18;;;17.10;99.90;;;;;;12425257;28;20045;-82
2022/08/22 06:27:12;;;;;;;13.13;4.50;;;17.30;99.90;;;;;;12508101;28;20053;-82
2022/08/22 06:33:21;;;;;;;10.52;4.15;;;17.30;99.90;;;;;;12517951;28;20041;-82
2022/08/22 06:39:32;;;;;;;14.93;4.57;;;17.30;99.90;;;;;;12508512;28;20049;-82
2022/08/22 06:45:34;;;;;;;13.70;4.72;;;17.40;99.90;;;;;;12483448;28;20045;-82
2022/08/22 06:51:41;;;;;;;10.27;4.20;;;17.50;99.90;;;;;;12479529;28;20115;-82
2022/08/22 06:57:56;;;;;;;14.68;4.63;;;17.50;99.90;;;;;;12474460;28;20293;-82
2022/08/22 07:04:06;;;;;;;10.20;4.10;;;17.50;99.90;;;;;;12478147;28;20049;-82
2022/08/22 07:10:13;;;;;;;11.93;4.05;;;17.60;99.90;;;;;;12486762;28;20069;-82
2022/08/22 07:16:30;;;;;;;9.30;3.85;;;17.70;99.90;;;;;;12490591;28;20050;-81
2022/08/22 07:22:36;;;;;;;11.27;4.57;;;17.80;99.90;;;;;;12509617;28;20046;-81
2022/08/22 07:28:55;;;;;;;10.77;3.60;;;17.90;99.90;;;;;;12494203;28;20046;-81
2022/08/22 07:35:19;;;;;;;10.15;3.22;;;18.00;99.90;;;;;;12473299;28;20034;-81
2022/08/22 07:41:28;;;;;;;10.90;3.60;;;18.20;99.90;;;;;;12478619;28;20515;-81
2022/08/22 07:48:00;;;;;;;9.68;3.50;;;18.30;99.90;;;;;;12490873;28;20049;-82
2022/08/22 07:54:06;;;;;;;11.45;3.53;;;18.50;99.90;;;;;;12472242;28;20068;-80
2022/08/22 08:00:16;;;;;;;10.73;3.63;;;18.60;99.90;;;;;;12491353;28;20053;-81
2022/08/22 08:06:22;;;;;;;8.38;3.45;;;18.70;99.90;;;;;;12481383;28;20041;-81
2022/08/22 08:12:31;;;;;;;11.02;3.35;;;19.00;99.90;;;;;;12492703;28;20132;-81
2022/08/22 08:18:36;;;;;;;9.68;3.10;;;19.10;99.90;;;;;;12500975;28;20050;-81
2022/08/22 08:24:41;;;;;;;12.68;3.20;;;19.20;99.90;;;;;;12480995;28;20038;-82
2022/08/22 08:30:57;;;;;;;8.70;3.05;;;19.40;99.90;;;;;;12470876;28;20061;-81
2022/08/22 08:37:05;;;;;;;9.30;2.45;;;19.70;99.90;;;;;;12498151;28;20496;-81
2022/08/22 08:43:26;;;;;;;5.55;2.53;;;19.80;99.90;;;;;;12463939;28;20049;-82
2022/08/22 08:49:52;;;;;;;10.85;2.63;;;20.00;99.90;;;;;;12488284;28;20072;-82
2022/08/22 08:56:17;;;;;;;6.60;2.05;;;20.20;99.90;;;;;;12474938;28;20057;-82
2022/08/22 09:02:59;;;;;;;9.93;3.08;;;20.20;99.90;;;;;;12487436;28;20053;-82
2022/08/22 09:09:16;;;;;;;8.07;2.63;;;20.40;99.90;;;;;;12478107;28;20490;-81
2022/08/22 09:15:42;;;;;;;10.55;2.50;;;20.60;99.90;;;;;;12475302;28;20191;-82
2022/08/22 09:22:19;;;;;;;8.10;2.40;;;20.80;99.90;;;;;;12486546;28;20191;-82
2022/08/22 09:28:40;;;;;;;4.90;1.85;;;20.90;99.90;;;;;;12468430;28;20184;-82
2022/08/22 09:34:56;;;;;;;6.82;2.25;;;21.10;99.90;;;;;;12479792;28;20095;-81
2022/08/22 09:41:28;;;;;;;11.93;3.20;;;21.30;99.90;;;;;;12489340;28;20049;-82
2022/08/22 09:47:45;;;;;;;5.88;2.15;;;21.60;99.90;;;;;;12490040;28;20076;-82
2022/08/22 09:53:59;;;;;;;4.82;2.05;;;22.00;99.90;;;;;;12487137;28;20140;-82
2022/08/22 10:00:04;;;;;;;6.80;2.08;;;22.30;99.90;;;;;;12509419;28;20276;-82
2022/08/22 10:06:15;;;;;;;8.48;2.10;;;22.40;99.90;;;;;;12481876;28;20046;-82
2022/08/22 10:12:29;;;;;;;10.85;2.05;;;22.70;99.90;;;;;;12504273;28;20490;-82
2022/08/22 10:19:12;;;;;;;5.88;1.90;;;22.90;99.90;;;;;;12488389;28;20432;-82
2022/08/22 10:25:39;;;;;;;6.82;1.60;;;23.50;99.90;;;;;;12473185;28;20180;-83
2022/08/22 10:31:56;;;;;;;6.03;1.25;;;23.90;99.90;;;;;;12491610;28;20412;-82
2022/08/22 10:38:10;;;;;;;3.15;1.10;;;24.20;99.90;;;;;;12481278;28;20042;-82
2022/08/22 10:44:48;;;;;;;3.63;1.10;;;24.50;99.90;;;;;;12486696;28;20053;-82
2022/08/22 10:51:13;;;;;;;5.25;1.40;;;24.80;99.90;;;;;;12412567;28;20238;-81
2022/08/22 10:58:03;;;;;;;4.93;1.02;;;25.00;99.90;;;;;;12499327;28;20092;-81
2022/08/22 11:04:40;;;;;;;3.50;1.10;;;25.60;99.90;;;;;;12342992;28;20623;-82
2022/08/22 11:10:57;;;;;;;4.55;1.63;;;26.00;99.90;;;;;;12465818;28;20065;-83
2022/08/22 11:17:22;;;;;;;3.28;0.93;;;26.30;99.90;;;;;;12484398;28;20482;-82
2022/08/22 11:23:43;;;;;;;;;;;26.70;99.90;;;;;;12489918;28;20034;-82
2022/08/22 11:30:13;;;;;;;4.63;1.40;;;26.60;99.90;;;;;;12492413;28;19925;-82
2022/08/22 11:36:40;;;;;;;5.45;1.20;;;26.90;99.90;;;;;;12493151;28;20056;-82
2022/08/22 11:43:06;;;;;;;4.78;1.27;;;26.80;99.90;;;;;;12470157;28;20049;-82
2022/08/22 11:49:25;;;;;;;3.28;1.10;;;26.80;99.90;;;;;;12494004;28;20056;-81
2022/08/22 11:55:37;;;;;;;5.47;1.45;;;26.80;99.90;;;;;;12471857;28;20056;-81
2022/08/22 12:01:48;;;;;;;4.70;1.53;;;26.70;99.90;;;;;;12477819;28;20049;-82
2022/08/22 12:08:02;;;;;;;3.38;1.00;;;26.60;99.90;;;;;;12484581;28;20045;-82
2022/08/22 12:14:15;;;;;;;4.85;1.25;;;27.00;99.90;;;;;;12478904;28;20114;-82
2022/08/22 12:20:57;;;;;;;7.57;1.17;;;27.60;99.90;;;;;;12485925;28;20057;-82
2022/08/22 12:27:19;;;;;;;4.47;1.10;;;27.80;99.90;;;;;;12491502;28;20045;-82
2022/08/22 12:34:07;;;;;;;3.63;1.40;;;27.90;99.90;;;;;;12479438;28;20493;-82
2022/08/22 12:40:22;;;;;;;2.70;1.13;;;27.10;99.90;;;;;;12488050;28;20049;-82
2022/08/22 12:46:49;;;;;;;4.22;1.25;;;26.20;99.90;;;;;;12490461;28;20430;-82
2022/08/22 12:52:57;;;;;;;;;;;25.60;99.90;;;;;;12481920;28;20057;-82
2022/08/22 12:59:18;;;;;;;7.40;1.30;;;25.20;99.90;;;;;;12474842;28;19921;-82
2022/08/22 13:05:26;;;;;;;5.20;1.42;;;24.90;99.90;;;;;;12486915;28;20044;-83
2022/08/22 13:11:39;;;;;;;7.82;3.42;;;24.80;99.90;;;;;;12474883;28;20049;-82
2022/08/22 13:17:43;;;;;;;10.95;5.68;;;25.50;99.90;;;;;;12468992;28;20064;-82
2022/08/22 13:23:52;;;;;;;8.85;3.05;;;25.70;99.90;;;;;;12481507;28;20041;-82
2022/08/22 13:30:05;;;;;;;6.10;2.78;;;26.20;99.90;;;;;;12523462;28;20096;-82
2022/08/22 13:36:19;;;;;;;3.78;1.30;;;26.90;99.90;;;;;;12480641;28;20211;-82
2022/08/22 13:42:25;;;;;;;5.85;1.02;;;26.90;99.90;;;;;;12480879;28;20602;-82
2022/08/22 13:48:52;;;;;;;22.50;2.50;;;27.30;99.90;;;;;;12500158;28;20052;-82
2022/08/22 13:55:21;;;;;;;5.07;1.70;;;27.80;99.90;;;;;;12482864;28;20493;-84
2022/08/22 14:01:34;;;;;;;4.32;1.23;;;28.50;99.90;;;;;;12475339;28;20060;-82
2022/08/22 14:08:06;;;;;;;2.85;1.15;;;28.90;99.90;;;;;;12475571;28;20052;-85
2022/08/22 14:14:29;;;;;;;4.75;1.10;;;29.00;99.90;;;;;;12479175;28;20046;-86
2022/08/22 14:20:31;;;;;;;3.47;1.10;;;28.50;99.90;;;;;;12468498;28;20049;-82
2022/08/22 14:26:38;;;;;;;2.55;1.00;;;27.60;99.90;;;;;;12472236;28;20049;-83
2022/08/22 14:33:00;;;;;;;4.75;1.60;;;26.90;99.90;;;;;;12502133;28;20061;-83
2022/08/22 14:39:19;;;;;;;7.15;1.40;;;26.50;99.90;;;;;;12480415;28;20041;-83
2022/08/22 14:45:27;;;;;;;4.35;0.98;;;26.90;99.90;;;;;;12513057;28;20146;-83
2022/08/22 14:51:34;;;;;;;6.25;1.10;;;27.10;99.90;;;;;;12506990;28;20049;-82
2022/08/22 14:57:43;;;;;;;2.70;1.20;;;26.70;99.90;;;;;;12482613;28;20061;-82
2022/08/22 15:03:59;;;;;;;4.13;1.00;;;26.40;99.90;;;;;;12484941;28;20183;-83
2022/08/22 15:10:19;;;;;;;4.50;0.90;;;26.00;99.90;;;;;;12503522;28;20049;-82
2022/08/22 15:16:45;;;;;;;3.88;1.13;;;25.90;99.90;;;;;;12498844;28;20518;-86
2022/08/22 15:22:50;;;;;;;4.13;1.20;;;25.80;99.90;;;;;;12462330;28;20042;-82
2022/08/22 15:29:01;;;;;;;4.70;1.05;;;25.80;99.90;;;;;;12484969;28;20628;-82
2022/08/22 15:35:29;;;;;;;5.40;1.30;;;26.00;99.90;;;;;;12478882;28;20508;-82
2022/08/22 15:41:31;;;;;;;5.45;1.60;;;26.80;99.90;;;;;;12488803;28;20303;-83
2022/08/22 15:47:40;;;;;;;5.10;1.27;;;27.00;99.90;;;;;;12508214;28;20456;-82
2022/08/22 15:53:42;;;;;;;9.40;1.38;;;26.90;99.90;;;;;;12495507;28;20041;-81
2022/08/22 16:00:40;;;;;;;4.60;1.20;;;26.80;99.90;;;;;;12483248;28;20046;-81
2022/08/22 16:06:48;;;;;;;4.20;1.42;;;26.30;99.90;;;;;;12417065;28;20052;-81
2022/08/22 16:13:14;;;;;;;3.33;1.20;;;26.00;99.90;;;;;;12481718;28;20042;-81
2022/08/22 16:19:25;;;;;;;3.35;1.30;;;25.70;99.90;;;;;;12469557;28;20046;-81
2022/08/22 16:25:46;;;;;;;6.55;1.52;;;25.60;99.90;;;;;;12474775;28;20516;-82
2022/08/22 16:31:48;;;;;;;5.15;1.40;;;25.50;99.90;;;;;;12461948;28;20042;-82
2022/08/22 16:37:51;;;;;;;4.07;1.20;;;25.40;99.90;;;;;;12452410;28;20068;-82
2022/08/22 16:44:26;;;;;;;5.68;1.50;;;25.30;99.90;;;;;;12467774;28;20046;-82
2022/08/22 16:50:37;;;;;;;2.97;1.15;;;25.10;99.90;;;;;;12455122;28;20469;-82
2022/08/22 16:56:52;;;;;;;3.47;1.40;;;25.00;99.90;;;;;;12443836;28;20057;-81
2022/08/22 17:03:24;;;;;;;3.67;1.08;;;24.90;99.90;;;;;;12447225;28;20517;-82
2022/08/22 17:09:54;;;;;;;3.67;1.20;;;24.80;99.90;;;;;;12444478;28;20049;-82
2022/08/22 17:16:06;;;;;;;3.28;1.30;;;24.70;99.90;;;;;;12447749;28;20049;-82
2022/08/22 17:22:27;;;;;;;5.78;1.38;;;24.60;99.90;;;;;;12464433;28;20466;-82
2022/08/22 17:28:38;;;;;;;4.38;1.10;;;24.50;99.90;;;;;;12460781;28;20132;-81
2022/08/22 17:35:06;;;;;;;4.88;1.25;;;24.50;99.90;;;;;;12450618;28;20057;-82
2022/08/22 17:41:27;;;;;;;5.80;1.42;;;24.40;99.90;;;;;;12444812;28;20533;-81
2022/08/22 17:47:39;;;;;;;5.15;1.50;;;24.30;99.90;;;;;;12458339;28;20045;-82
2022/08/22 17:53:53;;;;;;;3.05;1.30;;;24.20;99.90;;;;;;12428304;28;20059;-82
2022/08/22 18:00:14;;;;;;;5.22;1.65;;;23.80;99.90;;;;;;12450048;28;20053;-82
2022/08/22 18:06:19;;;;;;;2.63;1.15;;;23.50;99.90;;;;;;12462143;28;20049;-82
2022/08/22 18:12:31;;;;;;;5.45;1.52;;;23.50;99.90;;;;;;12451475;28;20057;-81
2022/08/22 18:18:39;;;;;;;6.15;1.83;;;23.40;99.90;;;;;;12453925;28;20061;-82
2022/08/22 18:24:59;;;;;;;7.25;1.95;;;23.30;99.90;;;;;;12449654;28;20049;-82
2022/08/22 18:31:07;;;;;;;5.13;1.60;;;23.10;99.90;;;;;;12483395;28;20401;-82
2022/08/22 18:37:34;;;;;;;4.65;1.80;;;22.90;99.90;;;;;;12481142;28;20052;-81
2022/08/22 18:43:44;;;;;;;4.18;1.63;;;23.00;99.90;;;;;;12512742;28;20129;-81
2022/08/22 18:49:53;;;;;;;6.32;1.73;;;22.80;99.90;;;;;;12485222;28;20045;-81
2022/08/22 18:56:07;;;;;;;6.97;1.60;;;22.70;99.90;;;;;;12470856;28;20187;-81
2022/08/22 19:02:33;;;;;;;5.55;1.67;;;22.60;99.90;;;;;;12490910;28;20056;-81
2022/08/22 19:08:49;;;;;;;7.55;1.70;;;22.60;99.90;;;;;;12494174;28;20041;-81
2022/08/22 19:15:29;;;;;;;5.28;1.70;;;22.50;99.90;;;;;;12486886;28;20054;-81
2022/08/22 19:28:07;;;;;;;5.03;1.40;;;22.20;99.90;;;;;;12500444;28;20068;-81
2022/08/22 19:34:13;;;;;;;4.90;1.83;;;22.10;99.90;;;;;;12489284;28;20448;-81
2022/08/22 19:40:44;;;;;;;5.20;1.70;;;22.10;99.90;;;;;;12491575;28;20049;-81
2022/08/22 19:47:06;;;;;;;4.45;1.75;;;22.10;99.90;;;;;;12510600;28;20131;-81
2022/08/22 19:53:31;;;;;;;5.60;1.40;;;22.20;99.90;;;;;;12502386;28;20041;-81
2022/08/22 19:59:58;;;;;;;5.63;1.58;;;22.20;99.90;;;;;;12496306;28;20052;-81
2022/08/22 20:06:09;;;;;;;4.75;1.80;;;22.10;99.90;;;;;;12490906;28;20512;-81
2022/08/22 20:12:49;;;;;;;4.15;1.70;;;22.10;99.90;;;;;;12477573;28;20049;-81
2022/08/22 20:19:15;;;;;;;12.38;1.77;;;22.00;99.90;;;;;;12505596;28;20045;-81
2022/08/22 20:25:34;;;;;;;5.55;1.60;;;22.00;99.90;;;;;;12504688;28;20042;-81
2022/08/22 20:31:50;;;;;;;4.40;1.63;;;21.90;99.90;;;;;;12495864;28;20042;-81
2022/08/22 20:38:04;;;;;;;5.78;1.67;;;21.90;99.90;;;;;;12489969;28;20057;-81
2022/08/22 20:44:27;;;;;;;6.45;1.50;;;21.70;99.90;;;;;;12484463;28;20557;-81
2022/08/22 20:50:29;;;;;;;3.40;1.38;;;21.60;99.90;;;;;;12492311;28;20049;-80
2022/08/22 20:56:32;;;;;;;4.20;1.23;;;21.70;99.90;;;;;;12493824;28;20108;-80
2022/08/22 21:02:36;;;;;;;3.47;1.20;;;22.00;99.90;;;;;;12490692;28;20140;-80
2022/08/22 21:08:40;;;;;;;2.88;1.25;;;22.10;99.90;;;;;;12487439;28;20040;-80
2022/08/22 21:14:44;;;;;;;;;;;22.00;99.90;;;;;;12492480;28;20050;-81
2022/08/22 21:20:48;;;;;;;4.93;1.45;;;22.00;99.90;;;;;;12499352;28;19965;-81
2022/08/22 21:27:00;;;;;;;5.28;1.05;;;22.10;99.90;;;;;;12496567;28;20461;-80
2022/08/22 21:33:02;;;;;;;5.43;1.48;;;22.20;99.90;;;;;;12480462;28;20049;-81
2022/08/22 21:39:17;;;;;;;5.60;1.70;;;22.20;99.90;;;;;;12487672;28;20081;-80
2022/08/22 21:45:55;;;;;;;3.72;1.80;;;22.20;99.90;;;;;;12508635;28;20494;-80
2022/08/22 21:51:57;;;;;;;4.47;1.80;;;22.00;99.90;;;;;;12447484;28;20068;-80
2022/08/22 21:58:14;;;;;;;8.00;1.60;;;22.00;99.90;;;;;;12523203;28;20053;-80
2022/08/22 22:04:36;;;;;;;4.78;1.55;;;22.00;99.90;;;;;;12498512;28;20048;-81
2022/08/22 22:10:41;;;;;;;4.18;1.98;;;21.90;99.90;;;;;;12511679;28;20077;-80
2022/08/22 22:16:44;;;;;;;4.93;1.63;;;22.10;99.90;;;;;;12507108;28;20390;-80
2022/08/22 22:22:46;;;;;;;8.13;2.00;;;22.20;99.90;;;;;;12514496;28;20056;-81
2022/08/22 22:28:49;;;;;;;4.82;1.90;;;22.20;99.90;;;;;;12506775;28;20053;-80
2022/08/22 22:34:51;;;;;;;6.18;1.92;;;22.30;99.90;;;;;;12498093;28;20041;-81
2022/08/22 22:40:53;;;;;;;10.13;2.22;;;22.30;99.90;;;;;;12509853;28;20045;-80
2022/08/22 22:46:56;;;;;;;7.18;1.95;;;22.30;99.90;;;;;;12494854;28;20080;-80
2022/08/22 22:52:58;;;;;;;3.72;1.70;;;22.30;99.90;;;;;;12511258;28;20048;-81
2022/08/22 22:59:00;;;;;;;11.23;2.10;;;22.10;99.90;;;;;;12478776;28;20037;-80
2022/08/22 23:05:14;;;;;;;;;;;22.10;99.90;;;;;;12485325;28;20496;-82
2022/08/22 23:11:22;;;;;;;5.18;1.92;;;22.10;99.90;;;;;;12496542;28;20547;-81
2022/08/22 23:17:25;;;;;;;8.13;1.75;;;22.10;99.90;;;;;;12491382;28;20520;-80
2022/08/22 23:23:27;;;;;;;9.07;1.70;;;22.10;99.90;;;;;;12496998;28;20061;-80
2022/08/22 23:29:29;;;;;;;9.57;2.00;;;22.10;99.90;;;;;;12488132;28;20057;-83
2022/08/22 23:35:31;;;;;;;5.13;1.67;;;22.00;99.90;;;;;;12533318;28;20039;-80
2022/08/22 23:41:33;;;;;;;4.35;1.70;;;22.00;99.90;;;;;;12506439;28;20072;-81
2022/08/22 23:47:35;;;;;;;5.57;1.53;;;22.00;99.90;;;;;;12478436;28;20041;-81
2022/08/22 23:53:38;;;;;;;4.05;1.80;;;22.00;99.90;;;;;;12489700;28;20049;-82
2022/08/22 23:59:41;;;;;;;7.28;1.83;;;22.00;99.90;;;;;;12496154;28;20054;-81
